createdAt,value
2019-03-08T00:01:15.946Z,8.13
2019-03-08T00:03:45.402Z,8.13
2019-03-08T00:06:14.727Z,8.08
2019-03-08T00:08:44.250Z,8.09
2019-03-08T00:11:13.585Z,7.92
2019-03-08T00:13:42.939Z,7.82
2019-03-08T00:16:12.353Z,7.68
2019-03-08T00:18:41.685Z,7.51
2019-03-08T00:21:11.085Z,7.56
2019-03-08T00:23:40.496Z,7.44
2019-03-08T00:26:10.020Z,7.38
2019-03-08T00:28:39.399Z,7.48
2019-03-08T00:31:09.148Z,7.59
2019-03-08T00:33:38.632Z,7.50
2019-03-08T00:36:07.962Z,7.29
2019-03-08T00:38:37.324Z,7.19
2019-03-08T00:41:06.633Z,7.11
2019-03-08T00:43:36.006Z,7.11
2019-03-08T00:46:05.460Z,7.13
2019-03-08T00:48:34.792Z,7.17
2019-03-08T00:51:04.458Z,7.22
2019-03-08T00:53:33.777Z,7.14
2019-03-08T00:56:03.128Z,6.99
2019-03-08T00:58:32.537Z,7.07
2019-03-08T01:01:01.949Z,7.21
2019-03-08T01:03:31.270Z,7.22
2019-03-08T01:06:00.625Z,7.02
2019-03-08T01:08:29.973Z,7.00
2019-03-08T01:10:59.389Z,7.06
2019-03-08T01:13:28.750Z,7.02
2019-03-08T01:15:58.131Z,6.83
2019-03-08T01:18:27.837Z,6.81
2019-03-08T01:20:57.241Z,6.09
2019-03-08T01:23:26.619Z,6.83
2019-03-08T01:25:56.045Z,6.81
2019-03-08T01:28:25.413Z,6.87
2019-03-08T01:30:54.721Z,6.99
2019-03-08T01:33:24.103Z,7.05
2019-03-08T01:35:53.468Z,7.05
2019-03-08T01:38:23.004Z,7.15
2019-03-08T01:40:52.406Z,7.18
2019-03-08T01:43:21.741Z,7.12
2019-03-08T01:45:51.717Z,6.97
2019-03-08T01:48:21.070Z,6.85
2019-03-08T01:50:50.474Z,6.95
2019-03-08T01:53:19.860Z,6.88
2019-03-08T01:55:49.308Z,6.97
2019-03-08T01:58:18.631Z,7.01
2019-03-08T02:00:48.067Z,7.02
2019-03-08T02:03:17.453Z,7.12
2019-03-08T02:05:46.840Z,7.18
2019-03-08T02:08:16.284Z,7.08
2019-03-08T02:10:45.714Z,7.13
2019-03-08T02:13:15.388Z,7.21
2019-03-08T02:15:44.769Z,7.21
2019-03-08T02:18:14.131Z,7.05
2019-03-08T02:20:43.562Z,6.92
2019-03-08T02:23:13.026Z,6.80
2019-03-08T02:25:42.402Z,6.83
2019-03-08T02:28:11.944Z,6.87
2019-03-08T02:30:41.348Z,6.86
2019-03-08T02:33:10.747Z,5.90
2019-03-08T02:35:40.436Z,6.88
2019-03-08T02:38:10.004Z,6.90
2019-03-08T02:40:39.679Z,6.78
2019-03-08T02:43:14.027Z,6.84
2019-03-08T02:45:43.487Z,6.88
2019-03-08T02:48:12.890Z,6.71
2019-03-08T02:50:42.223Z,6.56
2019-03-08T02:53:11.647Z,6.67
2019-03-08T02:55:41.042Z,6.78
2019-03-08T02:58:10.494Z,6.90
2019-03-08T03:00:45.714Z,6.91
2019-03-08T03:03:15.428Z,6.89
2019-03-08T03:05:44.974Z,6.87
2019-03-08T03:08:14.360Z,6.82
2019-03-08T03:10:43.736Z,6.85
2019-03-08T03:13:13.115Z,6.82
2019-03-08T03:15:42.470Z,6.86
2019-03-08T03:18:12.622Z,6.74
2019-03-08T03:20:42.346Z,6.59
2019-03-08T03:23:11.720Z,6.59
2019-03-08T03:25:41.045Z,6.59
2019-03-08T03:28:10.656Z,6.49
2019-03-08T03:30:40.001Z,6.48
2019-03-08T03:33:09.594Z,6.46
2019-03-08T03:35:39.040Z,6.33
2019-03-08T03:38:08.499Z,6.28
2019-03-08T03:40:37.894Z,6.26
2019-03-08T03:43:07.290Z,6.07
2019-03-08T03:45:36.645Z,6.12
2019-03-08T03:48:06.187Z,6.16
2019-03-08T03:50:35.569Z,6.32
2019-03-08T03:53:04.979Z,6.34
2019-03-08T03:55:34.429Z,6.22
2019-03-08T03:58:03.848Z,6.07
2019-03-08T04:00:33.286Z,5.95
2019-03-08T04:03:02.618Z,5.96
2019-03-08T04:05:32.067Z,5.86
2019-03-08T04:08:01.482Z,5.97
2019-03-08T04:10:30.916Z,6.18
2019-03-08T04:13:00.313Z,6.36
2019-03-08T04:15:29.954Z,6.48
2019-03-08T04:17:59.281Z,6.72
2019-03-08T04:20:28.650Z,6.81
2019-03-08T04:22:58.018Z,6.84
2019-03-08T04:25:27.432Z,6.72
2019-03-08T04:27:57.099Z,5.87
2019-03-08T04:30:26.479Z,6.40
2019-03-08T04:32:55.808Z,6.59
2019-03-08T04:35:25.227Z,6.55
2019-03-08T04:37:54.600Z,6.36
2019-03-08T04:40:23.989Z,6.51
2019-03-08T04:42:53.374Z,6.47
2019-03-08T04:45:22.795Z,6.45
2019-03-08T04:47:52.147Z,6.57
2019-03-08T04:50:21.512Z,6.86
2019-03-08T04:52:50.815Z,7.00
2019-03-08T04:55:20.183Z,7.09
2019-03-08T04:57:49.734Z,7.20
2019-03-08T05:00:19.355Z,7.23
2019-03-08T05:02:48.775Z,7.20
2019-03-08T05:05:18.205Z,7.02
2019-03-08T05:07:47.549Z,7.02
2019-03-08T05:10:17.149Z,6.81
2019-03-08T05:12:46.488Z,6.79
2019-03-08T05:15:16.117Z,6.43
2019-03-08T05:17:45.527Z,6.96
2019-03-08T05:20:14.998Z,7.23
2019-03-08T05:22:44.377Z,6.96
2019-03-08T05:25:14.290Z,7.02
2019-03-08T05:27:43.602Z,7.05
2019-03-08T05:30:13.421Z,7.11
2019-03-08T05:32:42.854Z,6.86
2019-03-08T05:35:12.315Z,6.80
2019-03-08T05:37:41.756Z,6.82
2019-03-08T05:40:11.462Z,6.85
2019-03-08T05:42:40.830Z,7.20
2019-03-08T05:45:10.362Z,7.45
2019-03-08T05:47:39.759Z,7.32
2019-03-08T05:50:09.132Z,7.58
2019-03-08T05:52:38.500Z,7.87
2019-03-08T05:55:07.957Z,8.19
2019-03-08T05:57:37.308Z,8.80
2019-03-08T06:00:07.125Z,9.08
2019-03-08T06:02:36.476Z,9.25
2019-03-08T06:05:06.543Z,9.06
2019-03-08T06:07:36.171Z,9.67
2019-03-08T06:10:07.515Z,9.53
2019-03-08T06:12:37.345Z,9.49
2019-03-08T06:15:21.659Z,9.66
2019-03-08T06:17:51.212Z,9.62
2019-03-08T06:20:20.631Z,9.82
2019-03-08T06:22:49.995Z,9.85
2019-03-08T06:25:19.435Z,10.37
2019-03-08T06:27:48.864Z,10.82
2019-03-08T06:30:18.489Z,11.02
2019-03-08T06:32:47.924Z,11.38
2019-03-08T06:35:17.300Z,11.82
2019-03-08T06:37:46.773Z,11.86
2019-03-08T06:40:16.223Z,12.37
2019-03-08T06:42:45.646Z,12.85
2019-03-08T06:45:16.689Z,13.36
2019-03-08T06:47:46.333Z,13.64
2019-03-08T06:50:15.771Z,13.57
2019-03-08T06:52:45.245Z,13.76
2019-03-08T06:55:14.971Z,13.85
2019-03-08T06:57:44.621Z,14.20
2019-03-08T07:00:47.040Z,14.08
2019-03-08T07:03:16.424Z,14.22
2019-03-08T07:05:45.821Z,14.37
2019-03-08T07:08:15.707Z,14.77
2019-03-08T07:10:45.258Z,14.98
2019-03-08T07:13:16.501Z,15.04
2019-03-08T07:15:46.753Z,15.23
2019-03-08T07:18:16.226Z,15.14
2019-03-08T07:20:56.879Z,15.47
2019-03-08T07:23:46.598Z,15.70
2019-03-08T07:26:38.486Z,15.70
2019-03-08T07:29:45.110Z,15.68
2019-03-08T07:32:21.841Z,15.63
2019-03-08T07:35:08.477Z,15.89
2019-03-08T07:37:56.832Z,16.56
2019-03-08T07:40:48.575Z,16.52
2019-03-08T07:43:38.825Z,15.91
2019-03-08T07:46:36.840Z,16.07
2019-03-08T07:49:16.782Z,16.44
2019-03-08T07:52:11.757Z,16.93
2019-03-08T07:55:02.141Z,17.23
2019-03-08T07:57:56.489Z,16.82
2019-03-08T08:00:36.634Z,17.28
2019-03-08T08:03:26.273Z,17.71
2019-03-08T08:06:02.639Z,18.10
2019-03-08T08:08:52.032Z,17.13
2019-03-08T08:11:38.385Z,16.45
2019-03-08T08:14:25.677Z,16.88
2019-03-08T08:17:16.876Z,17.34
2019-03-08T08:20:15.926Z,17.58
2019-03-08T08:22:48.993Z,17.96
2019-03-08T08:25:37.149Z,17.93
2019-03-08T08:28:26.060Z,18.56
2019-03-08T08:31:20.498Z,18.50
2019-03-08T08:34:08.809Z,18.23
2019-03-08T08:36:57.084Z,18.52
2019-03-08T08:39:54.388Z,19.01
2019-03-08T08:42:45.588Z,19.14
2019-03-08T08:45:33.833Z,18.41
2019-03-08T08:48:25.692Z,17.91
2019-03-08T08:51:29.284Z,17.97
2019-03-08T08:54:28.879Z,18.57
2019-03-08T08:57:16.279Z,19.26
2019-03-08T09:00:02.421Z,19.91
2019-03-08T09:02:53.499Z,20.14
2019-03-08T09:05:29.637Z,20.04
2019-03-08T09:08:16.628Z,20.16
2019-03-08T09:10:53.329Z,19.90
2019-03-08T09:13:47.651Z,20.20
2019-03-08T09:16:39.986Z,20.47
2019-03-08T09:19:28.356Z,20.17
2019-03-08T09:22:21.532Z,20.28
2019-03-08T09:25:15.821Z,20.75
2019-03-08T09:28:16.349Z,20.54
2019-03-08T09:31:05.819Z,20.89
2019-03-08T09:33:54.333Z,20.85
2019-03-08T09:36:43.041Z,20.47
2019-03-08T09:39:34.765Z,20.24
2019-03-08T09:42:12.113Z,20.14
2019-03-08T09:44:59.263Z,20.62
2019-03-08T09:47:51.951Z,20.89
2019-03-08T09:50:40.950Z,21.02
2019-03-08T09:53:33.500Z,21.49
2019-03-08T09:56:39.144Z,21.81
2019-03-08T09:59:31.409Z,21.52
2019-03-08T10:02:10.485Z,21.22
2019-03-08T10:05:03.896Z,20.96
2019-03-08T10:07:44.917Z,19.67
2019-03-08T10:10:25.032Z,19.60
2019-03-08T10:13:15.551Z,19.15
2019-03-08T10:15:54.706Z,19.24
2019-03-08T10:18:57.118Z,19.21
2019-03-08T10:21:46.550Z,19.92
2019-03-08T10:24:38.996Z,21.26
2019-03-08T10:27:18.995Z,21.25
2019-03-08T10:30:06.277Z,21.17
2019-03-08T10:33:13.185Z,21.53
2019-03-08T10:36:04.319Z,21.32
2019-03-08T10:38:42.349Z,21.59
2019-03-08T10:41:37.453Z,21.73
2019-03-08T10:44:38.728Z,21.82
2019-03-08T10:47:17.714Z,21.63
2019-03-08T10:50:07.096Z,21.66
2019-03-08T10:52:41.777Z,22.47
2019-03-08T10:55:33.841Z,22.65
2019-03-08T10:58:09.394Z,22.45
2019-03-08T11:01:04.643Z,23.18
2019-03-08T11:03:47.258Z,23.32
2019-03-08T11:06:27.607Z,23.07
2019-03-08T11:09:30.260Z,23.42
2019-03-08T11:12:17.671Z,23.30
2019-03-08T11:15:09.136Z,23.03
2019-03-08T11:17:57.222Z,22.94
2019-03-08T11:20:55.821Z,20.35
2019-03-08T11:23:47.446Z,22.58
2019-03-08T11:26:37.266Z,22.16
2019-03-08T11:29:26.002Z,22.00
2019-03-08T11:32:22.948Z,22.05
2019-03-08T11:35:12.929Z,21.86
2019-03-08T11:37:58.712Z,21.96
2019-03-08T11:40:46.019Z,21.94
2019-03-08T11:43:33.280Z,22.48
2019-03-08T11:46:19.088Z,23.10
2019-03-08T11:49:14.353Z,23.01
2019-03-08T11:52:01.521Z,23.03
2019-03-08T11:55:03.497Z,23.20
2019-03-08T11:57:50.608Z,23.28
2019-03-08T12:00:35.973Z,23.13
2019-03-08T12:03:25.406Z,23.15
2019-03-08T12:06:27.000Z,23.35
2019-03-08T12:09:19.538Z,23.41
2019-03-08T12:12:12.543Z,23.87
2019-03-08T12:15:04.545Z,23.44
2019-03-08T12:17:47.774Z,23.44
2019-03-08T12:20:36.508Z,23.51
2019-03-08T12:23:25.009Z,23.34
2019-03-08T12:26:16.603Z,23.69
2019-03-08T12:29:03.346Z,24.27
2019-03-08T12:31:42.395Z,24.79
2019-03-08T12:34:36.882Z,24.63
2019-03-08T12:37:15.883Z,24.48
2019-03-08T12:40:00.303Z,23.93
2019-03-08T12:42:52.395Z,23.70
2019-03-08T12:45:56.516Z,23.99
2019-03-08T12:48:51.413Z,24.29
2019-03-08T12:51:49.471Z,24.16
2019-03-08T12:54:28.580Z,23.96
2019-03-08T12:57:16.069Z,24.01
2019-03-08T13:00:11.878Z,23.94
2019-03-08T13:02:58.865Z,23.62
2019-03-08T13:05:46.137Z,23.56
2019-03-08T13:08:25.128Z,23.60
2019-03-08T13:10:54.593Z,23.38
2019-03-08T13:13:24.437Z,23.20
2019-03-08T13:15:54.806Z,23.39
2019-03-08T13:18:24.341Z,23.41
2019-03-08T13:20:54.396Z,23.60
2019-03-08T13:23:23.815Z,23.56
2019-03-08T13:25:53.253Z,23.60
2019-03-08T13:28:22.720Z,23.67
2019-03-08T13:30:52.194Z,23.38
2019-03-08T13:33:21.959Z,23.50
2019-03-08T13:35:51.939Z,23.63
2019-03-08T13:38:21.419Z,23.68
2019-03-08T13:40:50.857Z,23.75
2019-03-08T13:43:20.307Z,23.74
2019-03-08T13:45:49.730Z,23.67
2019-03-08T13:48:19.140Z,23.72
2019-03-08T13:50:48.507Z,23.66
2019-03-08T13:53:17.969Z,23.48
2019-03-08T13:55:47.406Z,23.51
2019-03-08T13:58:16.784Z,23.21
2019-03-08T14:00:46.625Z,23.35
2019-03-08T14:03:16.536Z,23.50
2019-03-08T14:05:46.003Z,23.64
2019-03-08T14:08:15.395Z,23.52
2019-03-08T14:10:46.298Z,23.38
2019-03-08T14:13:15.671Z,23.29
2019-03-08T14:15:46.343Z,23.09
2019-03-08T14:18:15.755Z,22.93
2019-03-08T14:20:45.166Z,22.80
2019-03-08T14:23:14.956Z,22.80
2019-03-08T14:25:44.554Z,22.87
2019-03-08T14:28:15.317Z,22.85
2019-03-08T14:30:57.697Z,22.94
2019-03-08T14:33:25.171Z,22.93
2019-03-08T14:35:54.940Z,22.92
2019-03-08T14:38:24.329Z,22.95
2019-03-08T14:41:09.107Z,22.77
2019-03-08T14:43:48.939Z,22.82
2019-03-08T14:46:25.839Z,22.90
2019-03-08T14:48:55.326Z,22.79
2019-03-08T14:51:24.767Z,22.54
2019-03-08T14:53:54.525Z,22.64
2019-03-08T14:56:23.989Z,22.52
2019-03-08T14:58:53.531Z,22.39
2019-03-08T15:01:22.879Z,22.37
2019-03-08T15:03:52.622Z,22.36
2019-03-08T15:06:27.972Z,22.24
2019-03-08T15:08:55.127Z,22.14
2019-03-08T15:11:26.403Z,22.14
2019-03-08T15:13:57.985Z,22.12
2019-03-08T15:16:26.923Z,22.06
2019-03-08T15:18:56.387Z,22.06
2019-03-08T15:21:25.781Z,21.98
2019-03-08T15:23:55.983Z,21.95
2019-03-08T15:26:25.519Z,21.94
2019-03-08T15:28:54.894Z,21.90
2019-03-08T15:31:25.555Z,21.81
2019-03-08T15:33:54.928Z,21.77
2019-03-08T15:36:24.683Z,21.66
2019-03-08T15:38:58.569Z,21.49
2019-03-08T15:41:26.484Z,21.31
2019-03-08T15:43:55.977Z,21.22
2019-03-08T15:46:26.838Z,20.51
2019-03-08T15:48:56.390Z,20.89
2019-03-08T15:51:26.975Z,20.76
2019-03-08T15:53:56.400Z,20.68
2019-03-08T15:56:25.743Z,20.60
2019-03-08T15:58:55.167Z,20.54
2019-03-08T16:01:25.521Z,20.48
2019-03-08T16:03:54.898Z,20.40
2019-03-08T16:06:24.359Z,20.28
2019-03-08T16:08:53.785Z,20.22
2019-03-08T16:11:23.230Z,20.13
2019-03-08T16:13:52.940Z,20.03
2019-03-08T16:16:22.353Z,19.87
2019-03-08T16:18:51.795Z,19.74
2019-03-08T16:21:21.135Z,19.72
2019-03-08T16:23:51.787Z,19.68
2019-03-08T16:26:25.320Z,19.54
2019-03-08T16:28:52.455Z,19.46
2019-03-08T16:31:52.679Z,19.39
2019-03-08T16:34:21.837Z,19.31
2019-03-08T16:37:19.166Z,19.21
2019-03-08T16:40:19.204Z,19.12
2019-03-08T16:43:12.857Z,19.03
2019-03-08T16:46:00.140Z,18.89
2019-03-08T16:48:33.664Z,18.77
2019-03-08T16:51:23.818Z,18.69
2019-03-08T16:54:05.506Z,18.65
2019-03-08T16:56:41.852Z,18.59
2019-03-08T16:59:42.430Z,18.48
2019-03-08T17:02:42.993Z,18.40
2019-03-08T17:05:45.038Z,18.28
2019-03-08T17:08:30.038Z,18.21
2019-03-08T17:11:18.429Z,18.17
2019-03-08T17:13:54.050Z,18.14
2019-03-08T17:16:41.473Z,18.09
2019-03-08T17:19:18.711Z,18.07
2019-03-08T17:22:05.704Z,18.08
2019-03-08T17:25:06.073Z,18.11
2019-03-08T17:28:06.452Z,18.18
2019-03-08T17:31:03.764Z,18.16
2019-03-08T17:33:51.610Z,18.21
2019-03-08T17:36:39.160Z,17.29
2019-03-08T17:39:32.131Z,18.29
2019-03-08T17:42:22.301Z,18.36
2019-03-08T17:45:15.482Z,18.35
2019-03-08T17:48:03.765Z,18.32
2019-03-08T17:50:51.131Z,18.23
2019-03-08T17:53:45.482Z,18.16
2019-03-08T17:56:33.782Z,18.09
2019-03-08T17:59:34.485Z,18.02
2019-03-08T18:02:29.776Z,17.91
2019-03-08T18:05:18.153Z,17.87
2019-03-08T18:08:14.637Z,17.88
2019-03-08T18:11:02.957Z,17.84
2019-03-08T18:13:50.339Z,17.89
2019-03-08T18:16:24.682Z,17.96
2019-03-08T18:19:11.816Z,17.98
2019-03-08T18:22:00.100Z,18.01
2019-03-08T18:24:54.481Z,18.02
2019-03-08T18:27:40.744Z,17.96
2019-03-08T18:30:37.153Z,17.97
2019-03-08T18:33:16.445Z,17.92
2019-03-08T18:36:03.669Z,17.84
2019-03-08T18:38:50.896Z,17.80
2019-03-08T18:41:32.257Z,17.71
2019-03-08T18:44:10.757Z,17.60
2019-03-08T18:46:55.175Z,16.87
2019-03-08T18:49:41.834Z,17.35
2019-03-08T18:52:36.421Z,17.23
2019-03-08T18:55:23.891Z,17.15
2019-03-08T18:58:08.501Z,17.05
2019-03-08T19:00:47.738Z,16.93
2019-03-08T19:03:38.752Z,16.83
2019-03-08T19:06:20.018Z,16.75
2019-03-08T19:09:04.393Z,16.66
2019-03-08T19:11:59.018Z,16.57
2019-03-08T19:14:45.503Z,16.52
2019-03-08T19:17:40.309Z,16.45
2019-03-08T19:20:19.051Z,16.38
2019-03-08T19:23:05.988Z,16.31
2019-03-08T19:25:51.280Z,16.15
2019-03-08T19:28:46.125Z,15.94
2019-03-08T19:31:46.479Z,15.82
2019-03-08T19:34:34.957Z,15.77
2019-03-08T19:37:32.472Z,15.68
2019-03-08T19:40:09.387Z,15.44
2019-03-08T19:42:57.675Z,15.28
2019-03-08T19:45:44.662Z,15.29
2019-03-08T19:48:40.377Z,15.20
2019-03-08T19:51:37.539Z,15.04
2019-03-08T19:54:18.425Z,14.88
2019-03-08T19:57:04.848Z,14.78
2019-03-08T19:59:53.154Z,14.64
2019-03-08T20:02:29.331Z,14.59
2019-03-08T20:05:33.050Z,14.40
2019-03-08T20:08:27.510Z,14.47
2019-03-08T20:11:14.481Z,14.43
2019-03-08T20:14:09.289Z,14.52
2019-03-08T20:17:00.635Z,14.54
2019-03-08T20:19:47.800Z,14.25
2019-03-08T20:22:32.937Z,14.22
2019-03-08T20:25:21.315Z,14.10
2019-03-08T20:28:12.433Z,13.89
2019-03-08T20:31:07.798Z,13.78
2019-03-08T20:33:59.097Z,13.63
2019-03-08T20:36:37.098Z,13.55
2019-03-08T20:39:28.964Z,13.51
2019-03-08T20:42:06.040Z,13.50
2019-03-08T20:44:42.308Z,13.36
2019-03-08T20:47:15.193Z,13.10
2019-03-08T20:49:44.523Z,13.03
2019-03-08T20:52:13.874Z,12.98
2019-03-08T20:54:43.223Z,12.84
2019-03-08T20:57:12.635Z,12.69
2019-03-08T20:59:41.971Z,12.51
2019-03-08T21:02:14.051Z,12.30
2019-03-08T21:04:43.452Z,12.16
2019-03-08T21:07:12.810Z,12.16
2019-03-08T21:09:42.204Z,12.24
2019-03-08T21:12:11.590Z,12.26
2019-03-08T21:14:40.973Z,12.25
2019-03-08T21:17:10.342Z,12.16
2019-03-08T21:19:39.680Z,11.95
2019-03-08T21:22:09.046Z,11.89
2019-03-08T21:24:38.416Z,11.91
2019-03-08T21:27:07.860Z,11.96
2019-03-08T21:29:37.228Z,11.72
2019-03-08T21:32:07.537Z,11.54
2019-03-08T21:34:37.007Z,11.53
2019-03-08T21:37:06.376Z,11.40
2019-03-08T21:39:35.756Z,11.33
2019-03-08T21:42:05.125Z,11.28
2019-03-08T21:44:34.809Z,11.15
2019-03-08T21:47:04.178Z,11.08
2019-03-08T21:49:33.525Z,11.18
2019-03-08T21:52:02.890Z,11.26
2019-03-08T21:54:32.257Z,11.37
2019-03-08T21:57:01.766Z,11.29
2019-03-08T21:59:31.135Z,11.22
2019-03-08T22:02:00.501Z,11.22
2019-03-08T22:04:48.760Z,11.16
2019-03-08T22:07:18.313Z,11.15
2019-03-08T22:09:58.774Z,11.13
2019-03-08T22:12:28.119Z,11.19
2019-03-08T22:14:57.506Z,11.60
2019-03-08T22:17:27.054Z,12.02
2019-03-08T22:19:56.442Z,12.00
2019-03-08T22:22:25.827Z,12.09
2019-03-08T22:24:55.217Z,12.21
2019-03-08T22:27:24.606Z,12.02
2019-03-08T22:29:54.239Z,11.92
2019-03-08T22:32:23.621Z,12.02
2019-03-08T22:34:52.955Z,11.78
2019-03-08T22:37:22.326Z,11.53
2019-03-08T22:39:51.801Z,11.17
2019-03-08T22:42:21.173Z,11.06
2019-03-08T22:44:50.612Z,10.93
2019-03-08T22:47:19.992Z,10.98
2019-03-08T22:49:49.399Z,11.12
2019-03-08T22:52:18.750Z,11.02
2019-03-08T22:54:48.207Z,11.06
2019-03-08T22:57:17.574Z,11.02
2019-03-08T22:59:46.942Z,11.06
2019-03-08T23:02:16.405Z,10.93
2019-03-08T23:04:45.825Z,11.00
2019-03-08T23:07:15.174Z,11.00
2019-03-08T23:09:44.553Z,10.97
2019-03-08T23:12:13.894Z,11.10
2019-03-08T23:14:43.241Z,11.15
2019-03-08T23:17:12.665Z,11.01
2019-03-08T23:19:42.069Z,10.86
2019-03-08T23:22:11.517Z,10.74
2019-03-08T23:24:40.909Z,10.49
2019-03-08T23:27:23.755Z,10.17
2019-03-08T23:29:58.085Z,9.99
2019-03-08T23:32:33.343Z,9.92
2019-03-08T23:35:02.732Z,10.02
2019-03-08T23:37:32.088Z,9.85
2019-03-08T23:40:01.448Z,10.00
2019-03-08T23:42:30.982Z,10.10
2019-03-08T23:45:00.379Z,10.00
2019-03-08T23:47:29.784Z,9.84
2019-03-08T23:49:59.217Z,9.76
2019-03-08T23:52:28.611Z,9.75
2019-03-08T23:54:58.436Z,9.73
2019-03-08T23:57:27.852Z,9.75
2019-03-08T23:59:57.281Z,9.70
